Time;durP1;ratioP1;P1;durP2;ratioP2;P2;SDS_P1;SDS_P2;PMS_P1;PMS_P2;Temp;Humidity;BMP_temperature;BMP_pressure;BME280_temperature;BME280_humidity;BME280_pressure;Samples;Min_cycle;Max_cycle;Signal;HPM_P1;HPM_P2
2022/05/20 00:00:25;;;;;;;9.23;8.93;;;16.50;99.90;;;;;;5126523;27;20228;-83
2022/05/20 00:02:54;;;;;;;9.52;9.23;;;16.50;99.90;;;;;;5125940;28;20229;-83
2022/05/20 00:05:24;;;;;;;9.50;9.20;;;16.50;99.90;;;;;;5126644;28;21015;-83
2022/05/20 00:08:38;;;;;;;9.27;8.98;;;16.50;99.90;;;;;;5125197;28;20233;-84
2022/05/20 00:11:09;;;;;;;9.50;9.20;;;16.50;99.90;;;;;;5124147;27;20237;-83
2022/05/20 00:13:37;;;;;;;9.50;9.20;;;16.50;99.90;;;;;;5125827;28;20229;-84
2022/05/20 00:16:05;;;;;;;9.32;9.02;;;16.50;99.90;;;;;;5125252;28;20233;-83
2022/05/20 00:21:15;;;;;;;9.40;9.10;;;16.60;99.90;;;;;;5116466;27;20233;-83
2022/05/20 00:23:43;;;;;;;9.40;9.10;;;16.60;99.90;;;;;;5125493;28;20212;-84
2022/05/20 00:26:14;;;;;;;9.57;9.27;;;16.60;99.90;;;;;;5124989;28;20274;-84
2022/05/20 00:28:46;;;;;;;9.20;8.90;;;16.50;99.90;;;;;;5125676;28;20255;-84
2022/05/20 00:31:14;;;;;;;9.48;9.18;;;16.50;99.90;;;;;;5123613;27;20233;-84
2022/05/20 00:33:42;;;;;;;9.57;9.27;;;16.50;99.90;;;;;;5125639;28;20233;-84
2022/05/20 00:36:10;;;;;;;9.43;9.13;;;16.50;99.90;;;;;;5124929;28;20302;-82
2022/05/20 00:41:28;;;;;;;9.43;9.13;;;16.50;99.90;;;;;;5123144;27;20242;-82
2022/05/20 00:43:58;;;;;;;9.40;9.10;;;16.50;99.90;;;;;;5125444;28;20233;-82
2022/05/20 00:49:14;;;;;;;9.30;9.00;;;16.40;99.90;;;;;;5119619;27;20239;-83
2022/05/20 00:54:38;;;;;;;9.40;9.10;;;16.40;99.90;;;;;;5125258;28;20229;-83
2022/05/20 00:57:33;;;;;;;9.00;8.70;;;16.40;99.90;;;;;;5124782;28;20228;-83
2022/05/20 01:00:12;;;;;;;9.20;8.90;;;16.40;99.90;;;;;;5131459;28;20232;-83
2022/05/20 01:02:44;;;;;;;9.50;9.20;;;16.40;99.90;;;;;;5132144;27;20236;-83
2022/05/20 01:05:19;;;;;;;9.48;9.18;;;16.40;99.90;;;;;;5132112;28;20232;-83
2022/05/20 01:07:49;;;;;;;9.45;9.15;;;16.40;99.90;;;;;;5132497;28;20216;-83
2022/05/20 01:10:18;;;;;;;9.43;9.13;;;16.50;99.90;;;;;;5138049;28;20236;-83
2022/05/20 01:12:58;;;;;;;9.48;9.18;;;16.50;99.90;;;;;;5139677;28;20279;-83
2022/05/20 01:15:27;;;;;;;9.65;9.35;;;16.50;99.90;;;;;;5139648;28;20251;-83
2022/05/20 01:17:57;;;;;;;9.60;9.30;;;16.50;99.90;;;;;;5133614;28;20233;-83
2022/05/20 01:20:29;;;;;;;9.38;9.07;;;16.50;99.90;;;;;;5125786;27;20307;-83
2022/05/20 01:23:13;;;;;;;9.35;9.05;;;16.50;99.90;;;;;;5126500;28;20235;-83
2022/05/20 01:25:45;;;;;;;9.68;9.38;;;16.40;99.90;;;;;;5124526;28;20270;-83
2022/05/20 01:28:13;;;;;;;9.30;9.00;;;16.40;99.90;;;;;;5125438;28;20229;-83
2022/05/20 01:30:52;;;;;;;9.52;9.23;;;16.40;99.90;;;;;;5125429;27;20229;-83
2022/05/20 01:33:30;;;;;;;9.35;9.05;;;16.40;99.90;;;;;;5125475;28;20316;-83
2022/05/20 01:35:58;;;;;;;9.43;9.13;;;16.30;99.90;;;;;;5125190;28;20251;-83
2022/05/20 01:38:36;;;;;;;9.73;9.43;;;16.30;99.90;;;;;;5125449;28;20290;-83
2022/05/20 01:41:27;;;;;;;9.63;9.32;;;16.30;99.90;;;;;;5124601;27;20296;-83
2022/05/20 01:50:22;;;;;;;9.60;9.30;;;16.30;99.90;;;;;;5121792;28;20256;-83
2022/05/20 01:52:57;;;;;;;9.27;8.98;;;16.30;99.90;;;;;;5124836;28;20229;-83
2022/05/20 02:01:40;;;;;;;9.50;9.20;;;16.20;99.90;;;;;;5205075;27;20228;-83
2022/05/20 02:04:38;;;;;;;9.40;9.10;;;16.20;99.90;;;;;;5204092;27;20229;-83
2022/05/20 02:07:30;;;;;;;9.30;9.00;;;16.20;99.90;;;;;;5205519;27;20222;-83
2022/05/20 02:10:06;;;;;;;9.48;9.18;;;16.20;99.90;;;;;;5206655;27;20261;-83
2022/05/20 02:12:46;;;;;;;9.10;8.80;;;16.20;99.90;;;;;;5204699;27;20233;-83
2022/05/20 02:15:23;;;;;;;9.43;9.13;;;16.10;99.90;;;;;;5204461;27;20222;-82
2022/05/20 02:18:01;;;;;;;9.18;8.88;;;16.10;99.90;;;;;;5204344;27;20213;-83
2022/05/20 02:20:40;;;;;;;9.10;8.80;;;16.10;99.90;;;;;;5204496;27;20222;-83
2022/05/20 02:23:18;;;;;;;9.05;8.75;;;16.10;99.90;;;;;;5204827;27;20238;-83
2022/05/20 02:25:55;;;;;;;9.27;8.98;;;16.10;99.90;;;;;;5204781;27;20243;-83
2022/05/20 02:31:32;;;;;;;9.20;8.90;;;16.00;99.90;;;;;;5203857;27;20247;-82
2022/05/20 02:34:02;;;;;;;9.40;9.10;;;16.10;99.90;;;;;;5206346;27;20253;-83
2022/05/20 02:49:23;;;;;;;9.35;9.05;;;16.00;99.90;;;;;;5202687;27;20234;-82
2022/05/20 02:52:12;;;;;;;9.50;9.20;;;16.00;99.90;;;;;;5203142;27;20218;-82
2022/05/20 02:57:55;;;;;;;9.10;8.80;;;15.90;99.90;;;;;;5190234;27;20242;-82
2022/05/20 03:07:50;;;;;;;9.85;9.55;;;15.80;99.90;;;;;;5201902;27;20222;-83
2022/05/20 03:16:31;;;;;;;10.32;10.02;;;15.80;99.90;;;;;;5187411;27;20733;-83
2022/05/20 03:19:00;;;;;;;10.65;10.35;;;15.70;99.90;;;;;;5188428;27;20230;-83
2022/05/20 03:21:38;;;;;;;10.75;10.45;;;15.70;99.90;;;;;;5186772;27;20226;-83
2022/05/20 03:24:10;;;;;;;11.18;10.77;;;15.70;99.90;;;;;;5187935;27;20233;-83
2022/05/20 03:26:45;;;;;;;11.38;10.98;;;15.70;99.90;;;;;;5188948;27;20207;-83
2022/05/20 03:29:15;;;;;;;11.25;10.85;;;15.70;99.90;;;;;;5189085;27;20240;-83
2022/05/20 03:31:46;;;;;;;10.50;10.20;;;15.70;99.90;;;;;;5188760;27;20233;-83
2022/05/20 03:34:26;;;;;;;10.70;10.40;;;15.70;99.90;;;;;;5188689;27;20240;-82
2022/05/20 03:45:51;;;;;;;10.30;10.00;;;15.60;99.90;;;;;;5187929;27;20274;-83
2022/05/20 03:48:19;;;;;;;10.50;10.20;;;15.70;99.90;;;;;;5189054;27;20214;-83
2022/05/20 03:50:57;;;;;;;10.20;9.90;;;15.70;99.90;;;;;;5188678;27;20234;-83
2022/05/20 03:53:26;;;;;;;10.30;10.00;;;15.70;99.90;;;;;;5188520;27;20238;-83
2022/05/20 03:55:56;;;;;;;10.20;9.90;;;15.70;99.90;;;;;;5188393;27;20322;-83
2022/05/20 03:58:27;;;;;;;10.10;9.80;;;15.80;99.90;;;;;;5187378;27;20245;-83
2022/05/20 04:03:44;;;;;;;10.38;10.07;;;15.80;99.90;;;;;;5191459;27;20313;-83
2022/05/20 04:06:19;;;;;;;10.40;10.10;;;15.80;99.90;;;;;;5188082;27;20222;-83
2022/05/20 04:08:50;;;;;;;10.20;9.90;;;15.90;99.90;;;;;;5188308;27;20219;-83
2022/05/20 04:11:18;;;;;;;10.27;9.98;;;15.90;99.90;;;;;;5186984;27;20234;-84
2022/05/20 04:13:56;;;;;;;10.65;10.35;;;16.00;99.90;;;;;;5187995;27;20260;-83
2022/05/20 04:16:26;;;;;;;10.43;10.13;;;16.00;99.90;;;;;;5186565;27;20227;-83
2022/05/20 04:18:55;;;;;;;10.38;10.07;;;16.10;99.90;;;;;;5187772;27;20222;-83
2022/05/20 04:24:11;;;;;;;10.30;10.00;;;16.20;99.90;;;;;;5187609;27;20226;-82
2022/05/20 04:26:41;;;;;;;10.30;10.00;;;16.30;99.90;;;;;;5187223;27;20240;-82
2022/05/20 04:32:07;;;;;;;9.85;9.55;;;16.40;99.90;;;;;;5194588;22;20306;-86
2022/05/20 04:34:36;;;;;;;10.20;9.90;;;16.50;99.90;;;;;;5152693;27;20227;-86
2022/05/20 04:37:07;;;;;;;10.30;10.00;;;16.60;99.90;;;;;;5159717;27;20288;-86
2022/05/20 04:39:36;;;;;;;10.40;10.10;;;16.70;99.90;;;;;;5148558;27;20273;-86
2022/05/20 04:47:56;;;;;;;10.25;9.95;;;16.90;99.90;;;;;;5181231;27;20207;-85
2022/05/20 04:50:27;;;;;;;10.25;9.95;;;17.00;99.90;;;;;;5181292;27;20212;-86
2022/05/20 04:55:52;;;;;;;10.40;10.10;;;17.00;99.90;;;;;;5177323;27;20230;-87
2022/05/20 04:58:40;;;;;;;10.38;10.07;;;17.00;99.90;;;;;;5164017;27;20224;-85
2022/05/20 05:01:10;;;;;;;10.30;10.00;;;17.00;99.90;;;;;;5170617;27;20546;-84
2022/05/20 05:03:37;;;;;;;10.43;10.13;;;17.10;99.90;;;;;;5157700;27;20401;-83
2022/05/20 05:06:06;;;;;;;10.60;10.30;;;17.20;99.90;;;;;;5158160;27;20232;-83
2022/05/20 05:08:45;;;;;;;10.15;9.85;;;17.20;99.90;;;;;;5145902;27;20239;-87
2022/05/20 05:11:14;;;;;;;10.10;9.80;;;17.30;99.90;;;;;;5145118;27;20220;-87
2022/05/20 05:13:44;;;;;;;10.30;10.00;;;17.40;99.90;;;;;;5139652;27;20250;-87
2022/05/20 05:16:23;;;;;;;10.00;9.70;;;17.40;99.90;;;;;;5118011;28;20225;-87
2022/05/20 05:18:53;;;;;;;10.52;10.23;;;17.30;99.90;;;;;;5120580;28;20306;-87
2022/05/20 05:21:21;;;;;;;10.10;9.80;;;17.30;99.90;;;;;;5120126;28;20236;-86
2022/05/20 05:23:53;;;;;;;9.73;9.43;;;17.30;99.90;;;;;;5128306;27;20331;-88
2022/05/20 05:26:30;;;;;;;9.77;9.48;;;17.30;99.90;;;;;;5126141;27;20363;-87
2022/05/20 05:28:59;;;;;;;10.07;9.77;;;17.30;99.90;;;;;;5146899;27;20238;-88
2022/05/20 05:31:37;;;;;;;9.95;9.65;;;17.40;99.90;;;;;;5138027;27;20240;-87
2022/05/20 05:34:06;;;;;;;10.10;9.80;;;17.40;99.90;;;;;;5148498;27;20228;-85
2022/05/20 05:36:35;;;;;;;10.10;9.80;;;17.40;99.90;;;;;;5144008;27;20223;-88
2022/05/20 05:39:04;;;;;;;10.30;10.00;;;17.30;99.90;;;;;;5138306;27;20354;-84
2022/05/20 05:41:33;;;;;;;10.15;9.85;;;17.30;99.90;;;;;;5136595;27;20236;-84
2022/05/20 05:44:02;;;;;;;10.10;9.80;;;17.40;99.90;;;;;;5139954;27;20231;-82
2022/05/20 05:46:42;;;;;;;9.90;9.60;;;17.40;99.90;;;;;;5139144;27;20299;-86
2022/05/20 05:49:11;;;;;;;10.00;9.70;;;17.40;99.90;;;;;;5138468;27;20246;-86
2022/05/20 05:51:41;;;;;;;10.00;9.70;;;17.40;99.90;;;;;;5137609;27;20236;-86
2022/05/20 05:54:09;;;;;;;10.20;9.90;;;17.40;99.90;;;;;;5140607;27;20228;-84
2022/05/20 05:56:40;;;;;;;9.90;9.60;;;17.40;99.90;;;;;;5138840;27;20305;-84
2022/05/20 05:59:09;;;;;;;9.60;9.30;;;17.40;99.90;;;;;;5138161;27;20227;-84
2022/05/20 06:01:51;;;;;;;9.48;9.18;;;17.50;99.90;;;;;;5146266;27;20293;-83
2022/05/20 06:04:19;;;;;;;9.65;9.35;;;17.50;99.90;;;;;;5161567;27;20261;-83
2022/05/20 06:06:47;;;;;;;9.82;9.52;;;17.60;99.90;;;;;;5158638;27;20219;-83
2022/05/20 06:09:16;;;;;;;10.20;9.90;;;17.70;99.90;;;;;;5156549;27;20246;-83
2022/05/20 06:11:45;;;;;;;10.20;9.90;;;17.90;99.90;;;;;;5153769;27;20224;-84
2022/05/20 06:14:15;;;;;;;10.38;10.07;;;18.00;99.90;;;;;;5142065;27;20234;-83
2022/05/20 06:16:52;;;;;;;10.40;10.10;;;18.20;99.90;;;;;;5137442;27;20289;-84
2022/05/20 06:19:23;;;;;;;10.50;10.20;;;18.40;99.90;;;;;;5145026;27;20220;-86
2022/05/20 06:21:53;;;;;;;10.45;10.15;;;18.50;99.90;;;;;;5136659;27;20298;-85
2022/05/20 06:24:22;;;;;;;10.50;10.20;;;18.80;99.90;;;;;;5136210;27;20239;-85
2022/05/20 06:26:54;;;;;;;10.40;10.10;;;18.90;99.90;;;;;;5136430;27;20239;-86
2022/05/20 06:29:22;;;;;;;10.68;10.38;;;19.10;99.90;;;;;;5143841;27;20227;-85
2022/05/20 06:31:53;;;;;;;10.73;10.43;;;19.20;99.90;;;;;;5151715;27;20231;-86
2022/05/20 06:39:48;;;;;;;10.60;10.30;;;19.40;99.90;;;;;;5157972;27;20230;-86
2022/05/20 06:40:11;;;;;;;10.40;10.10;;;19.80;99.90;;;;;;5174456;27;20215;-83
2022/05/20 06:42:42;;;;;;;10.50;10.20;;;19.90;99.90;;;;;;5174548;27;20219;-83
2022/05/20 06:45:12;;;;;;;10.52;10.23;;;20.10;99.90;;;;;;5181489;27;20227;-86
2022/05/20 06:47:43;;;;;;;10.38;10.07;;;20.20;99.90;;;;;;5168223;27;20261;-84
2022/05/20 06:50:19;;;;;;;10.30;10.00;;;20.30;99.90;;;;;;5165024;27;20234;-86
2022/05/20 06:52:47;;;;;;;10.40;10.10;;;20.50;99.90;;;;;;5163511;27;20239;-85
2022/05/20 06:55:16;;;;;;;10.40;10.10;;;20.70;99.90;;;;;;5164376;27;20234;-86
2022/05/20 06:57:46;;;;;;;10.35;10.05;;;20.90;99.90;;;;;;5169871;27;20215;-83
2022/05/20 07:00:16;;;;;;;10.40;10.10;;;21.00;99.90;;;;;;5181518;27;20237;-84
2022/05/20 07:02:51;;;;;;;10.50;10.20;;;21.20;99.90;;;;;;5167571;27;20232;-84
2022/05/20 07:05:27;;;;;;;10.50;10.20;;;21.30;99.90;;;;;;5177291;27;20226;-83
2022/05/20 07:07:56;;;;;;;10.45;10.15;;;21.40;99.90;;;;;;5179945;27;20223;-83
2022/05/20 07:10:24;;;;;;;9.90;9.60;;;21.50;99.90;;;;;;5178591;27;20249;-84
2022/05/20 07:12:53;;;;;;;10.18;9.88;;;21.70;99.90;;;;;;5167753;27;20951;-85
2022/05/20 07:15:23;;;;;;;10.27;9.98;;;21.90;99.90;;;;;;5130506;27;20225;-85
2022/05/20 07:17:55;;;;;;;10.30;10.00;;;22.10;99.90;;;;;;5138363;27;20244;-85
2022/05/20 07:20:30;;;;;;;10.45;10.15;;;22.10;99.90;;;;;;5141932;27;21098;-85
2022/05/20 07:22:59;;;;;;;10.10;9.80;;;22.20;99.90;;;;;;5140480;27;20235;-85
2022/05/20 07:25:29;;;;;;;10.00;9.70;;;22.40;99.90;;;;;;5141639;27;20232;-86
2022/05/20 07:27:59;;;;;;;10.13;9.82;;;22.50;99.90;;;;;;5139245;27;20730;-86
2022/05/20 07:30:28;;;;;;;9.88;9.57;;;22.70;99.90;;;;;;5140591;27;20224;-87
2022/05/20 07:33:00;;;;;;;10.20;9.90;;;22.90;99.90;;;;;;5140651;27;20235;-87
2022/05/20 07:35:28;;;;;;;10.00;9.70;;;23.10;99.90;;;;;;5140194;27;20235;-88
2022/05/20 07:38:03;;;;;;;10.10;9.80;;;23.40;99.90;;;;;;5142481;27;20235;-87
2022/05/20 07:40:34;;;;;;;10.45;10.15;;;23.40;99.90;;;;;;5152171;27;20227;-86
2022/05/20 07:43:03;;;;;;;10.20;9.90;;;23.50;99.90;;;;;;5155558;27;20787;-87
2022/05/20 07:45:33;;;;;;;9.77;9.48;;;23.50;99.90;;;;;;5158454;27;20227;-87
2022/05/20 07:48:12;;;;;;;10.02;9.73;;;23.60;99.90;;;;;;5127272;27;20232;-86
2022/05/20 07:50:45;;;;;;;9.85;9.55;;;23.80;99.90;;;;;;5122319;28;20213;-85
2022/05/20 07:53:23;;;;;;;9.40;9.10;;;23.80;99.90;;;;;;5121147;28;20221;-83
2022/05/20 07:55:58;;;;;;;9.43;9.13;;;23.90;99.90;;;;;;5119992;27;20235;-83
2022/05/20 07:58:41;;;;;;;9.30;9.00;;;24.00;99.90;;;;;;5120684;28;20224;-82
2022/05/20 08:01:14;;;;;;;9.15;8.90;;;23.80;99.90;;;;;;5120765;28;20252;-84
2022/05/20 08:06:34;;;;;;;9.27;8.98;;;23.90;99.90;;;;;;5134368;28;20301;-82
2022/05/20 08:09:10;;;;;;;10.13;9.82;;;23.90;99.90;;;;;;5137295;27;20224;-84
2022/05/20 08:11:47;;;;;;;10.10;9.80;;;24.00;99.90;;;;;;5124327;28;20275;-84
2022/05/20 08:14:21;;;;;;;10.10;9.80;;;24.30;99.90;;;;;;5126177;28;20242;-84
2022/05/20 08:17:04;;;;;;;10.48;10.18;;;24.50;99.90;;;;;;5126034;28;20300;-83
2022/05/20 08:19:45;;;;;;;10.40;10.10;;;24.70;99.90;;;;;;5123855;28;20260;-83
2022/05/20 08:22:22;;;;;;;10.10;9.80;;;24.90;99.90;;;;;;5123226;28;20286;-83
2022/05/20 08:24:58;;;;;;;10.00;9.70;;;25.10;99.90;;;;;;5123897;28;20223;-83
2022/05/20 08:27:36;;;;;;;10.10;9.80;;;25.10;99.90;;;;;;5123001;28;20318;-83
2022/05/20 08:30:21;;;;;;;10.15;9.85;;;24.80;99.90;;;;;;5126269;28;20229;-83
2022/05/20 08:32:55;;;;;;;10.07;9.77;;;24.40;99.90;;;;;;5125618;28;20258;-82
2022/05/20 08:35:34;;;;;;;10.10;9.80;;;24.40;99.90;;;;;;5124895;28;20217;-83
2022/05/20 08:38:26;;;;;;;9.98;9.68;;;24.40;99.90;;;;;;5126821;28;20232;-84
2022/05/20 08:41:03;;;;;;;9.90;9.60;;;24.60;99.90;;;;;;5124992;28;20224;-82
2022/05/20 08:43:36;;;;;;;9.80;9.50;;;24.70;99.90;;;;;;5135975;27;20230;-82
2022/05/20 08:46:11;;;;;;;10.07;9.77;;;24.70;99.90;;;;;;5125627;28;20224;-82
2022/05/20 08:48:44;;;;;;;9.80;9.50;;;24.70;99.90;;;;;;5124594;28;20232;-82
2022/05/20 08:51:23;;;;;;;10.02;9.73;;;25.10;99.90;;;;;;5125328;28;20240;-83
2022/05/20 08:53:53;;;;;;;9.85;9.55;;;25.50;99.90;;;;;;5122196;28;20282;-83
2022/05/20 08:56:29;;;;;;;9.65;9.35;;;25.80;99.90;;;;;;5128334;27;20230;-81
2022/05/20 09:04:35;;;;;;;10.30;10.00;;;26.10;99.90;;;;;;5127667;27;20231;-83
2022/05/20 09:07:10;;;;;;;10.35;10.05;;;26.30;99.90;;;;;;5156881;27;20207;-83
2022/05/20 09:09:53;;;;;;;10.15;9.85;;;26.50;99.90;;;;;;5143993;27;20239;-82
2022/05/20 09:12:38;;;;;;;9.95;9.65;;;26.70;99.90;;;;;;5150193;27;20231;-82
2022/05/20 09:18:11;;;;;;;10.50;10.20;;;26.60;99.90;;;;;;5176113;27;20419;-82
2022/05/20 09:20:52;;;;;;;10.40;10.10;;;26.80;99.90;;;;;;5164867;27;20231;-81
2022/05/20 09:23:26;;;;;;;10.40;10.10;;;27.00;99.90;;;;;;5166789;27;20234;-82
2022/05/20 09:26:09;;;;;;;10.25;9.95;;;27.40;99.90;;;;;;5167016;27;20229;-82
2022/05/20 09:28:55;;;;;;;10.30;10.00;;;27.60;99.90;;;;;;5163080;27;20259;-86
2022/05/20 09:31:29;;;;;;;10.20;9.90;;;27.90;99.90;;;;;;5161856;27;20253;-82
2022/05/20 09:34:10;;;;;;;10.50;10.20;;;28.20;99.90;;;;;;5163441;27;20227;-81
2022/05/20 09:36:51;;;;;;;9.65;9.35;;;28.40;99.90;;;;;;5161011;27;20234;-82
2022/05/20 09:39:27;;;;;;;9.85;9.55;;;28.20;99.90;;;;;;5161928;27;20223;-81
2022/05/20 09:41:57;;;;;;;9.80;9.50;;;27.90;99.90;;;;;;5170714;27;20229;-85
2022/05/20 09:47:32;;;;;;;9.60;9.30;;;28.20;99.90;;;;;;5173596;27;20225;-81
2022/05/20 09:50:08;;;;;;;9.70;9.40;;;28.40;99.90;;;;;;5175379;27;20223;-81
2022/05/20 09:52:55;;;;;;;10.02;9.73;;;28.60;99.90;;;;;;5147549;27;20258;-80
2022/05/20 09:55:32;;;;;;;10.30;10.00;;;28.40;99.90;;;;;;5160601;27;20227;-81
2022/05/20 09:58:20;;;;;;;9.60;9.30;;;28.00;99.90;;;;;;5156632;27;20701;-81
2022/05/20 10:00:59;;;;;;;10.10;9.80;;;28.00;99.90;;;;;;5143196;27;20236;-81
2022/05/20 10:03:36;;;;;;;10.10;9.80;;;28.10;99.90;;;;;;5144758;27;20231;-82
2022/05/20 10:06:23;;;;;;;10.32;10.02;;;28.20;99.90;;;;;;5143436;27;20286;-82
2022/05/20 10:09:02;;;;;;;10.32;10.02;;;28.20;99.90;;;;;;5154814;27;20231;-82
2022/05/20 10:11:49;;;;;;;10.57;10.27;;;28.70;99.90;;;;;;5141416;27;20240;-81
2022/05/20 10:14:27;;;;;;;10.38;10.07;;;29.10;99.90;;;;;;5142157;27;20232;-82
2022/05/20 10:17:06;;;;;;;10.40;10.10;;;29.30;99.90;;;;;;5141117;27;20211;-81
2022/05/20 10:19:48;;;;;;;10.38;10.07;;;29.60;99.90;;;;;;5143060;27;20224;-82
2022/05/20 10:22:31;;;;;;;10.95;10.65;;;29.60;99.90;;;;;;5150881;27;20280;-84
2022/05/20 10:25:09;;;;;;;11.00;10.70;;;30.00;99.90;;;;;;5157928;27;20223;-82
2022/05/20 10:28:04;;;;;;;10.68;10.38;;;30.10;99.90;;;;;;5145228;27;20314;-81
2022/05/20 10:33:34;;;;;;;10.25;9.95;;;30.30;99.90;;;;;;5185144;22;20224;-82
2022/05/20 10:36:11;;;;;;;10.43;10.13;;;30.40;99.90;;;;;;5160147;27;20293;-82
2022/05/20 10:38:58;;;;;;;10.25;9.95;;;30.50;99.90;;;;;;5169503;27;20302;-82
2022/05/20 10:41:46;;;;;;;10.38;10.07;;;30.60;99.90;;;;;;5167111;27;20215;-82
2022/05/20 10:50:31;;;;;;;10.70;10.40;;;30.80;99.90;;;;;;5124862;27;20233;-80
2022/05/20 10:53:19;;;;;;;11.27;10.98;;;31.10;99.90;;;;;;5130851;27;20238;-85
2022/05/20 10:59:44;;;;;;;11.50;11.20;;;32.10;99.90;;;;;;5142004;27;20223;-83
2022/05/20 11:03:05;;;;;;;10.85;10.55;;;32.40;99.90;;;;;;5110244;28;20294;-83
2022/05/20 11:06:01;;;;;;;11.30;11.00;;;32.70;99.90;;;;;;5089099;28;20259;-83
2022/05/20 11:08:48;;;;;;;11.20;10.90;;;32.80;99.90;;;;;;5126256;28;20236;-83
2022/05/20 11:11:37;;;;;;;11.00;10.70;;;32.90;99.90;;;;;;5124961;28;20285;-84
2022/05/20 11:14:44;;;;;;;11.05;10.75;;;32.80;99.90;;;;;;5125622;28;20228;-84
2022/05/20 11:17:40;;;;;;;11.15;10.85;;;32.80;99.90;;;;;;5135573;28;20227;-83
2022/05/20 11:20:32;;;;;;;11.30;11.00;;;32.70;99.90;;;;;;5128132;28;20243;-83
2022/05/20 11:23:38;;;;;;;11.38;11.07;;;32.60;99.90;;;;;;5128440;28;20236;-83
2022/05/20 11:26:24;;;;;;;11.25;10.95;;;32.40;99.90;;;;;;5127556;28;20233;-83
2022/05/20 11:29:21;;;;;;;11.30;11.00;;;32.60;99.90;;;;;;5125331;28;20677;-84
2022/05/20 11:32:07;;;;;;;11.25;10.95;;;32.60;99.90;;;;;;5125840;28;20228;-84
2022/05/20 11:35:13;;;;;;;11.63;11.23;;;32.60;99.90;;;;;;5124991;28;20293;-81
2022/05/20 11:45:10;;;;;;;11.93;11.52;;;33.70;99.90;;;;;;5141779;27;20227;-82
2022/05/20 11:48:34;;;;;;;11.88;11.48;;;34.00;99.90;;;;;;5125264;28;20263;-82
2022/05/20 11:52:04;;;;;;;11.70;11.30;;;34.40;99.90;;;;;;5123908;27;20229;-82
2022/05/20 11:54:59;;;;;;;12.00;11.60;;;34.60;99.90;;;;;;5122727;27;20236;-81
2022/05/20 11:57:39;;;;;;;11.75;11.35;;;34.70;99.90;;;;;;5145172;27;20224;-81
2022/05/20 12:00:21;;;;;;;11.57;11.20;;;34.60;99.90;;;;;;5146255;27;20246;-82
2022/05/20 12:02:56;;;;;;;11.10;10.80;;;34.40;99.90;;;;;;5145107;27;20228;-83
2022/05/20 12:05:31;;;;;;;11.10;10.80;;;34.60;99.90;;;;;;5145554;27;20230;-82
2022/05/20 12:08:01;;;;;;;11.05;10.75;;;34.80;99.90;;;;;;5145955;27;20291;-83
2022/05/20 12:10:49;;;;;;;11.10;10.80;;;35.00;99.90;;;;;;5153132;27;20239;-82
2022/05/20 12:13:26;;;;;;;11.05;10.75;;;35.10;99.90;;;;;;5154993;27;20236;-82
2022/05/20 12:16:13;;;;;;;10.98;10.68;;;35.30;99.90;;;;;;5149700;27;20231;-85
2022/05/20 12:24:54;;;;;;;11.43;11.13;;;35.20;99.90;;;;;;5123173;28;20262;-84
2022/05/20 12:27:42;;;;;;;11.30;11.00;;;35.10;99.90;;;;;;5124416;28;20225;-84
2022/05/20 12:30:43;;;;;;;11.40;11.10;;;35.20;99.90;;;;;;5125312;28;20225;-82
2022/05/20 12:33:24;;;;;;;11.15;10.85;;;35.10;99.90;;;;;;5126119;28;20248;-82
2022/05/20 12:36:36;;;;;;;11.43;11.13;;;35.00;99.90;;;;;;5126761;28;20237;-82
2022/05/20 12:39:48;;;;;;;11.65;11.30;;;34.40;99.90;;;;;;5126422;28;20217;-81
2022/05/20 12:42:27;;;;;;;12.00;11.60;;;33.70;99.90;;;;;;5125771;28;20221;-82
2022/05/20 12:44:57;;;;;;;11.70;11.30;;;33.30;99.90;;;;;;5126655;28;20241;-82
2022/05/20 12:47:37;;;;;;;11.40;11.10;;;32.90;99.90;;;;;;5126193;28;20233;-81
2022/05/20 12:50:21;;;;;;;11.40;11.10;;;32.60;99.90;;;;;;5125915;28;20233;-81
2022/05/20 12:52:52;;;;;;;11.65;11.27;;;32.30;99.90;;;;;;5124986;28;20275;-81
2022/05/20 12:55:33;;;;;;;11.70;11.30;;;32.30;99.90;;;;;;5125486;28;20229;-81
2022/05/20 12:58:03;;;;;;;11.35;11.05;;;32.30;99.90;;;;;;5127938;27;20232;-82
2022/05/20 13:00:33;;;;;;;11.60;11.20;;;32.10;99.90;;;;;;5146588;27;20224;-82
2022/05/20 13:03:09;;;;;;;11.40;11.10;;;32.10;99.90;;;;;;5137858;27;20254;-81
2022/05/20 13:05:46;;;;;;;11.77;11.38;;;32.20;99.90;;;;;;5146668;27;20232;-82
2022/05/20 13:11:28;;;;;;;11.57;11.18;;;32.50;99.90;;;;;;5148586;27;20272;-82
2022/05/20 13:14:00;;;;;;;11.40;11.10;;;32.90;99.90;;;;;;5147213;27;20301;-82
2022/05/20 13:16:29;;;;;;;11.52;11.23;;;33.30;99.90;;;;;;5146341;27;20247;-81
2022/05/20 13:19:07;;;;;;;11.55;11.23;;;33.50;99.90;;;;;;5138905;27;20228;-82
2022/05/20 13:21:44;;;;;;;11.30;11.00;;;33.70;99.90;;;;;;5127148;28;20228;-82
2022/05/20 13:24:23;;;;;;;11.30;11.00;;;33.70;99.90;;;;;;5127051;28;20229;-82
2022/05/20 13:27:10;;;;;;;11.48;11.18;;;33.60;99.90;;;;;;5127502;28;20233;-82
2022/05/20 13:29:40;;;;;;;11.52;11.23;;;33.70;99.90;;;;;;5127217;28;20335;-82
2022/05/20 13:32:35;;;;;;;11.15;10.85;;;33.80;99.90;;;;;;5125391;28;20237;-81
2022/05/20 13:35:06;;;;;;;11.45;11.15;;;33.90;99.90;;;;;;5138066;27;20281;-82
2022/05/20 13:37:43;;;;;;;11.32;11.02;;;34.10;99.90;;;;;;5130887;27;20232;-82
2022/05/20 13:40:20;;;;;;;11.40;11.10;;;34.40;99.90;;;;;;5146071;27;20233;-81
2022/05/20 13:42:59;;;;;;;11.40;11.10;;;34.40;99.90;;;;;;5136307;27;20296;-82
2022/05/20 13:51:11;;;;;;;11.40;11.10;;;34.50;99.90;;;;;;5129114;27;20301;-83
2022/05/20 13:53:43;;;;;;;11.13;10.82;;;34.50;99.90;;;;;;5145789;27;20259;-82
2022/05/20 13:56:19;;;;;;;11.27;10.98;;;34.40;99.90;;;;;;5146501;27;20315;-82
2022/05/20 14:01:36;;;;;;;11.10;10.80;;;33.50;99.90;;;;;;5144931;27;20220;-82
2022/05/20 14:04:09;;;;;;;11.73;11.32;;;33.30;99.90;;;;;;5145147;27;20236;-82
2022/05/20 14:06:50;;;;;;;11.15;10.85;;;33.30;99.90;;;;;;5145283;27;20281;-82
2022/05/20 14:09:21;;;;;;;11.10;10.80;;;33.30;99.90;;;;;;5145119;27;20299;-82
2022/05/20 14:17:28;;;;;;;11.15;10.85;;;34.00;99.90;;;;;;5144188;27;20215;-83
2022/05/20 14:20:05;;;;;;;11.00;10.70;;;34.00;99.90;;;;;;5145781;27;20295;-82
2022/05/20 14:22:44;;;;;;;10.95;10.65;;;33.70;99.90;;;;;;5145387;27;20243;-83
2022/05/20 14:25:33;;;;;;;11.30;11.00;;;33.60;99.90;;;;;;5144719;27;20227;-83
2022/05/20 14:28:16;;;;;;;11.10;10.80;;;33.50;99.90;;;;;;5144940;27;20225;-83
2022/05/20 14:30:56;;;;;;;11.20;10.90;;;33.30;99.90;;;;;;5144498;27;20258;-82
2022/05/20 14:33:33;;;;;;;11.43;11.13;;;33.30;99.90;;;;;;5143582;27;20262;-83
2022/05/20 14:36:12;;;;;;;11.35;11.05;;;33.10;99.90;;;;;;5144339;27;20740;-83
2022/05/20 14:38:52;;;;;;;11.20;10.90;;;32.90;99.90;;;;;;5144837;27;20227;-83
2022/05/20 14:41:29;;;;;;;10.52;10.23;;;33.10;99.90;;;;;;5146241;27;20258;-83
2022/05/20 14:44:06;;;;;;;10.30;10.00;;;33.30;99.90;;;;;;5145303;27;20260;-82
2022/05/20 14:52:44;;;;;;;10.02;9.73;;;33.80;99.90;;;;;;5140809;27;20226;-82
2022/05/20 15:00:57;;;;;;;10.93;10.63;;;33.50;99.90;;;;;;5144833;27;20230;-82
2022/05/20 15:04:00;;;;;;;10.77;10.48;;;33.10;99.90;;;;;;5145105;27;20293;-82
2022/05/20 15:06:42;;;;;;;10.70;10.40;;;33.00;99.90;;;;;;5148553;27;20228;-82
2022/05/20 15:09:26;;;;;;;10.98;10.68;;;32.80;99.90;;;;;;5153144;27;20208;-84
2022/05/20 15:11:58;;;;;;;10.95;10.65;;;32.70;99.90;;;;;;5161074;27;20273;-82
2022/05/20 15:14:35;;;;;;;10.93;10.63;;;32.80;99.90;;;;;;5161643;27;20236;-81
2022/05/20 15:17:05;;;;;;;11.00;10.70;;;32.90;99.90;;;;;;5146389;27;20254;-83
2022/05/20 15:20:01;;;;;;;10.80;10.50;;;32.70;99.90;;;;;;5146364;27;20277;-83
2022/05/20 15:22:29;;;;;;;10.70;10.40;;;32.60;99.90;;;;;;5146255;27;20224;-83
2022/05/20 15:25:00;;;;;;;10.88;10.57;;;32.80;99.90;;;;;;5146479;27;20228;-83
2022/05/20 15:30:15;;;;;;;11.20;10.90;;;33.20;99.90;;;;;;5146030;27;20244;-82
2022/05/20 15:35:51;;;;;;;11.65;11.30;;;33.60;99.90;;;;;;5147300;27;20413;-84
2022/05/20 15:38:37;;;;;;;11.25;10.95;;;33.90;99.90;;;;;;5144342;27;20259;-84
2022/05/20 15:41:09;;;;;;;11.38;11.07;;;33.70;99.90;;;;;;5145971;27;20224;-82
2022/05/20 15:43:37;;;;;;;11.20;10.90;;;33.70;99.90;;;;;;5146146;27;20220;-83
2022/05/20 15:46:20;;;;;;;11.40;11.10;;;33.70;99.90;;;;;;5146346;27;20331;-84
2022/05/20 15:48:53;;;;;;;11.15;10.85;;;33.60;99.90;;;;;;5147579;27;20244;-84
2022/05/20 15:51:32;;;;;;;11.50;11.20;;;33.70;99.90;;;;;;5148749;27;20215;-82
2022/05/20 15:54:00;;;;;;;11.70;11.30;;;34.00;99.90;;;;;;5146687;27;20228;-83
2022/05/20 15:57:33;;;;;;;11.35;11.05;;;34.10;99.90;;;;;;5145521;27;20228;-84
2022/05/20 16:00:03;;;;;;;11.32;11.02;;;34.00;99.90;;;;;;5133450;27;20336;-82
2022/05/20 16:02:41;;;;;;;11.30;11.00;;;33.60;99.90;;;;;;5137557;27;20229;-83